sensor_id;sensor_type;location;lat;lon;timestamp;temperature;humidity
16511;DHT22;8368;48.772;8.754;2023-09-18T00:01:50;17.40;99.90
16511;DHT22;8368;48.772;8.754;2023-09-18T00:04:15;17.50;99.90
16511;DHT22;8368;48.772;8.754;2023-09-18T00:06:41;17.50;99.90
16511;DHT22;8368;48.772;8.754;2023-09-18T00:09:06;17.50;99.90
16511;DHT22;8368;48.772;8.754;2023-09-18T00:11:37;17.50;99.90
16511;DHT22;8368;48.772;8.754;2023-09-18T00:14:03;17.50;99.90
16511;DHT22;8368;48.772;8.754;2023-09-18T00:16:29;17.40;99.90
16511;DHT22;8368;48.772;8.754;2023-09-18T00:18:54;17.40;99.90
16511;DHT22;8368;48.772;8.754;2023-09-18T00:21:20;17.30;99.90
16511;DHT22;8368;48.772;8.754;2023-09-18T00:23:45;17.30;99.90
16511;DHT22;8368;48.772;8.754;2023-09-18T00:26:11;17.30;99.90
16511;DHT22;8368;48.772;8.754;2023-09-18T00:28:37;17.30;99.90
16511;DHT22;8368;48.772;8.754;2023-09-18T00:31:02;17.40;99.90
16511;DHT22;8368;48.772;8.754;2023-09-18T00:33:28;17.40;99.90
16511;DHT22;8368;48.772;8.754;2023-09-18T00:35:54;17.50;99.90
16511;DHT22;8368;48.772;8.754;2023-09-18T00:38:19;17.70;99.90
16511;DHT22;8368;48.772;8.754;2023-09-18T00:40:45;17.80;99.90
16511;DHT22;8368;48.772;8.754;2023-09-18T00:43:10;18.00;99.90
16511;DHT22;8368;48.772;8.754;2023-09-18T00:45:40;18.10;99.90
16511;DHT22;8368;48.772;8.754;2023-09-18T00:48:07;18.20;99.90
16511;DHT22;8368;48.772;8.754;2023-09-18T00:50:32;18.20;99.90
16511;DHT22;8368;48.772;8.754;2023-09-18T00:52:59;18.30;99.90
16511;DHT22;8368;48.772;8.754;2023-09-18T00:55:25;18.50;99.90
16511;DHT22;8368;48.772;8.754;2023-09-18T00:57:50;18.60;99.90
16511;DHT22;8368;48.772;8.754;2023-09-18T01:00:16;18.60;99.90
16511;DHT22;8368;48.772;8.754;2023-09-18T01:02:43;18.70;99.90
16511;DHT22;8368;48.772;8.754;2023-09-18T01:05:09;18.70;99.90
16511;DHT22;8368;48.772;8.754;2023-09-18T01:07:35;18.70;99.90
16511;DHT22;8368;48.772;8.754;2023-09-18T01:10:01;18.70;99.90
16511;DHT22;8368;48.772;8.754;2023-09-18T01:12:40;18.90;99.90
16511;DHT22;8368;48.772;8.754;2023-09-18T01:15:17;18.90;99.90
16511;DHT22;8368;48.772;8.754;2023-09-18T01:17:43;18.90;99.90
16511;DHT22;8368;48.772;8.754;2023-09-18T01:20:10;18.90;99.90
16511;DHT22;8368;48.772;8.754;2023-09-18T01:22:36;18.90;99.90
16511;DHT22;8368;48.772;8.754;2023-09-18T01:25:01;18.90;99.90
16511;DHT22;8368;48.772;8.754;2023-09-18T01:27:28;18.90;99.90
16511;DHT22;8368;48.772;8.754;2023-09-18T01:29:53;18.90;99.90
16511;DHT22;8368;48.772;8.754;2023-09-18T01:32:19;18.90;99.90
16511;DHT22;8368;48.772;8.754;2023-09-18T01:34:48;19.00;99.90
16511;DHT22;8368;48.772;8.754;2023-09-18T01:37:17;19.00;99.90
16511;DHT22;8368;48.772;8.754;2023-09-18T01:39:46;19.00;99.90
16511;DHT22;8368;48.772;8.754;2023-09-18T01:42:15;19.00;99.90
16511;DHT22;8368;48.772;8.754;2023-09-18T01:44:41;19.00;99.90
16511;DHT22;8368;48.772;8.754;2023-09-18T01:47:12;18.90;99.90
16511;DHT22;8368;48.772;8.754;2023-09-18T01:49:40;18.90;99.90
16511;DHT22;8368;48.772;8.754;2023-09-18T01:52:08;18.80;99.90
16511;DHT22;8368;48.772;8.754;2023-09-18T01:54:34;18.70;99.90
16511;DHT22;8368;48.772;8.754;2023-09-18T01:57:00;18.60;99.90
16511;DHT22;8368;48.772;8.754;2023-09-18T01:59:26;18.40;99.90
16511;DHT22;8368;48.772;8.754;2023-09-18T02:01:52;18.40;99.90
16511;DHT22;8368;48.772;8.754;2023-09-18T02:04:19;18.30;99.90
16511;DHT22;8368;48.772;8.754;2023-09-18T02:06:49;18.20;99.90
16511;DHT22;8368;48.772;8.754;2023-09-18T02:09:16;18.10;99.90
16511;DHT22;8368;48.772;8.754;2023-09-18T02:11:43;18.10;99.90
16511;DHT22;8368;48.772;8.754;2023-09-18T02:14:09;18.10;99.90
16511;DHT22;8368;48.772;8.754;2023-09-18T02:16:37;18.20;99.90
16511;DHT22;8368;48.772;8.754;2023-09-18T02:19:03;18.10;99.90
16511;DHT22;8368;48.772;8.754;2023-09-18T02:21:30;18.10;99.90
16511;DHT22;8368;48.772;8.754;2023-09-18T02:23:56;18.10;99.90
16511;DHT22;8368;48.772;8.754;2023-09-18T02:26:23;18.00;99.90
16511;DHT22;8368;48.772;8.754;2023-09-18T02:28:48;18.10;99.90
16511;DHT22;8368;48.772;8.754;2023-09-18T02:31:15;18.10;99.90
16511;DHT22;8368;48.772;8.754;2023-09-18T02:33:42;18.00;99.90
16511;DHT22;8368;48.772;8.754;2023-09-18T02:36:08;17.90;99.90
16511;DHT22;8368;48.772;8.754;2023-09-18T02:38:33;17.90;99.90
16511;DHT22;8368;48.772;8.754;2023-09-18T02:40:59;17.90;99.90
16511;DHT22;8368;48.772;8.754;2023-09-18T02:43:25;17.80;99.90
16511;DHT22;8368;48.772;8.754;2023-09-18T02:45:51;17.70;99.90
16511;DHT22;8368;48.772;8.754;2023-09-18T02:48:17;17.70;99.90
16511;DHT22;8368;48.772;8.754;2023-09-18T02:50:43;17.60;99.90
16511;DHT22;8368;48.772;8.754;2023-09-18T02:53:25;17.60;99.90
16511;DHT22;8368;48.772;8.754;2023-09-18T02:55:52;17.50;99.90
16511;DHT22;8368;48.772;8.754;2023-09-18T02:58:18;17.50;99.90
16511;DHT22;8368;48.772;8.754;2023-09-18T03:00:46;17.50;99.90
16511;DHT22;8368;48.772;8.754;2023-09-18T03:03:12;17.40;99.90
16511;DHT22;8368;48.772;8.754;2023-09-18T03:05:38;17.40;99.90
16511;DHT22;8368;48.772;8.754;2023-09-18T03:08:04;17.40;99.90
16511;DHT22;8368;48.772;8.754;2023-09-18T03:10:34;17.40;99.90
16511;DHT22;8368;48.772;8.754;2023-09-18T03:13:01;17.40;99.90
16511;DHT22;8368;48.772;8.754;2023-09-18T03:15:27;17.40;99.90
16511;DHT22;8368;48.772;8.754;2023-09-18T03:17:52;17.50;99.90
16511;DHT22;8368;48.772;8.754;2023-09-18T03:20:18;17.50;99.90
16511;DHT22;8368;48.772;8.754;2023-09-18T03:22:43;17.50;99.90
16511;DHT22;8368;48.772;8.754;2023-09-18T03:25:09;17.50;99.90
16511;DHT22;8368;48.772;8.754;2023-09-18T03:27:35;17.50;99.90
16511;DHT22;8368;48.772;8.754;2023-09-18T03:30:00;17.60;99.90
16511;DHT22;8368;48.772;8.754;2023-09-18T03:32:26;17.60;99.90
16511;DHT22;8368;48.772;8.754;2023-09-18T03:34:52;17.70;99.90
16511;DHT22;8368;48.772;8.754;2023-09-18T03:37:17;17.90;99.90
16511;DHT22;8368;48.772;8.754;2023-09-18T03:39:43;18.10;99.90
16511;DHT22;8368;48.772;8.754;2023-09-18T03:42:09;18.30;99.90
16511;DHT22;8368;48.772;8.754;2023-09-18T03:44:35;18.40;99.90
16511;DHT22;8368;48.772;8.754;2023-09-18T03:47:01;18.60;99.90
16511;DHT22;8368;48.772;8.754;2023-09-18T03:49:27;18.70;99.90
16511;DHT22;8368;48.772;8.754;2023-09-18T03:51:53;18.90;99.90
16511;DHT22;8368;48.772;8.754;2023-09-18T03:54:18;19.20;99.90
16511;DHT22;8368;48.772;8.754;2023-09-18T03:56:44;19.40;99.90
16511;DHT22;8368;48.772;8.754;2023-09-18T03:59:11;19.40;99.90
16511;DHT22;8368;48.772;8.754;2023-09-18T04:01:37;19.20;99.90
16511;DHT22;8368;48.772;8.754;2023-09-18T04:04:03;19.00;99.90
16511;DHT22;8368;48.772;8.754;2023-09-18T04:06:44;18.80;99.90
16511;DHT22;8368;48.772;8.754;2023-09-18T04:09:11;18.60;99.90
16511;DHT22;8368;48.772;8.754;2023-09-18T04:11:37;18.40;99.90
16511;DHT22;8368;48.772;8.754;2023-09-18T04:14:03;18.20;99.90
16511;DHT22;8368;48.772;8.754;2023-09-18T04:16:28;18.00;99.90
16511;DHT22;8368;48.772;8.754;2023-09-18T04:18:56;17.90;99.90
16511;DHT22;8368;48.772;8.754;2023-09-18T04:21:22;17.70;99.90
16511;DHT22;8368;48.772;8.754;2023-09-18T04:23:47;17.60;99.90
16511;DHT22;8368;48.772;8.754;2023-09-18T04:26:13;17.50;99.90
16511;DHT22;8368;48.772;8.754;2023-09-18T04:28:42;17.40;99.90
16511;DHT22;8368;48.772;8.754;2023-09-18T04:31:07;17.30;99.90
16511;DHT22;8368;48.772;8.754;2023-09-18T04:33:33;17.30;99.90
16511;DHT22;8368;48.772;8.754;2023-09-18T04:35:58;17.20;99.90
16511;DHT22;8368;48.772;8.754;2023-09-18T04:38:24;17.10;99.90
16511;DHT22;8368;48.772;8.754;2023-09-18T04:40:49;17.10;99.90
16511;DHT22;8368;48.772;8.754;2023-09-18T04:43:22;17.10;99.90
16511;DHT22;8368;48.772;8.754;2023-09-18T04:45:50;17.00;99.90
16511;DHT22;8368;48.772;8.754;2023-09-18T04:48:16;17.00;99.90
16511;DHT22;8368;48.772;8.754;2023-09-18T04:50:42;17.00;99.90
16511;DHT22;8368;48.772;8.754;2023-09-18T04:53:07;17.00;99.90
16511;DHT22;8368;48.772;8.754;2023-09-18T04:55:34;17.00;99.90
16511;DHT22;8368;48.772;8.754;2023-09-18T04:57:59;16.90;99.90
16511;DHT22;8368;48.772;8.754;2023-09-18T05:00:25;17.00;99.90
16511;DHT22;8368;48.772;8.754;2023-09-18T05:02:52;17.00;99.90
16511;DHT22;8368;48.772;8.754;2023-09-18T05:05:18;17.00;99.90
16511;DHT22;8368;48.772;8.754;2023-09-18T05:07:44;17.00;99.90
16511;DHT22;8368;48.772;8.754;2023-09-18T05:10:10;17.00;99.90
16511;DHT22;8368;48.772;8.754;2023-09-18T05:12:38;17.00;99.90
16511;DHT22;8368;48.772;8.754;2023-09-18T05:15:04;17.00;99.90
16511;DHT22;8368;48.772;8.754;2023-09-18T05:17:42;17.10;99.90
16511;DHT22;8368;48.772;8.754;2023-09-18T05:20:09;17.00;99.90
16511;DHT22;8368;48.772;8.754;2023-09-18T05:22:37;17.00;99.90
16511;DHT22;8368;48.772;8.754;2023-09-18T05:25:03;17.00;99.90
16511;DHT22;8368;48.772;8.754;2023-09-18T05:27:29;17.00;99.90
16511;DHT22;8368;48.772;8.754;2023-09-18T05:29:55;17.00;99.90
16511;DHT22;8368;48.772;8.754;2023-09-18T05:32:20;17.20;99.90
16511;DHT22;8368;48.772;8.754;2023-09-18T05:34:46;17.20;99.90
16511;DHT22;8368;48.772;8.754;2023-09-18T05:37:11;17.20;99.90
16511;DHT22;8368;48.772;8.754;2023-09-18T05:39:37;17.20;99.90
16511;DHT22;8368;48.772;8.754;2023-09-18T05:42:03;17.20;99.90
16511;DHT22;8368;48.772;8.754;2023-09-18T05:44:28;17.30;99.90
16511;DHT22;8368;48.772;8.754;2023-09-18T05:46:54;17.20;99.90
16511;DHT22;8368;48.772;8.754;2023-09-18T05:49:19;17.20;99.90
16511;DHT22;8368;48.772;8.754;2023-09-18T05:51:45;17.20;99.90
16511;DHT22;8368;48.772;8.754;2023-09-18T05:54:12;17.20;99.90
16511;DHT22;8368;48.772;8.754;2023-09-18T05:56:38;17.10;99.90
16511;DHT22;8368;48.772;8.754;2023-09-18T05:59:03;17.10;99.90
16511;DHT22;8368;48.772;8.754;2023-09-18T06:01:29;17.20;99.90
16511;DHT22;8368;48.772;8.754;2023-09-18T06:03:55;17.10;99.90
16511;DHT22;8368;48.772;8.754;2023-09-18T06:06:20;17.10;99.90
16511;DHT22;8368;48.772;8.754;2023-09-18T06:08:46;17.10;99.90
16511;DHT22;8368;48.772;8.754;2023-09-18T06:11:11;17.10;99.90
16511;DHT22;8368;48.772;8.754;2023-09-18T06:13:37;17.10;99.90
16511;DHT22;8368;48.772;8.754;2023-09-18T06:16:04;17.10;99.90
16511;DHT22;8368;48.772;8.754;2023-09-18T06:18:32;17.20;99.90
16511;DHT22;8368;48.772;8.754;2023-09-18T06:20:58;17.20;99.90
16511;DHT22;8368;48.772;8.754;2023-09-18T06:23:23;17.20;99.90
16511;DHT22;8368;48.772;8.754;2023-09-18T06:25:49;17.30;99.90
16511;DHT22;8368;48.772;8.754;2023-09-18T06:28:21;17.30;99.90
16511;DHT22;8368;48.772;8.754;2023-09-18T06:30:47;17.30;99.90
16511;DHT22;8368;48.772;8.754;2023-09-18T06:33:13;17.40;99.90
16511;DHT22;8368;48.772;8.754;2023-09-18T06:35:38;17.50;99.90
16511;DHT22;8368;48.772;8.754;2023-09-18T06:38:05;17.60;99.90
16511;DHT22;8368;48.772;8.754;2023-09-18T06:40:32;17.70;99.90
16511;DHT22;8368;48.772;8.754;2023-09-18T06:43:00;17.70;99.90
16511;DHT22;8368;48.772;8.754;2023-09-18T06:45:26;17.70;99.90
16511;DHT22;8368;48.772;8.754;2023-09-18T06:47:52;17.70;99.90
16511;DHT22;8368;48.772;8.754;2023-09-18T06:50:18;17.90;99.90
16511;DHT22;8368;48.772;8.754;2023-09-18T06:52:44;18.00;99.90
16511;DHT22;8368;48.772;8.754;2023-09-18T06:55:10;18.00;99.90
16511;DHT22;8368;48.772;8.754;2023-09-18T06:57:35;18.00;99.90
16511;DHT22;8368;48.772;8.754;2023-09-18T07:00:01;17.90;99.90
16511;DHT22;8368;48.772;8.754;2023-09-18T07:02:27;17.90;99.90
16511;DHT22;8368;48.772;8.754;2023-09-18T07:04:52;17.90;99.90
16511;DHT22;8368;48.772;8.754;2023-09-18T07:07:18;18.00;99.90
16511;DHT22;8368;48.772;8.754;2023-09-18T07:09:50;18.00;99.90
16511;DHT22;8368;48.772;8.754;2023-09-18T07:12:16;17.90;99.90
16511;DHT22;8368;48.772;8.754;2023-09-18T07:14:47;17.90;99.90
16511;DHT22;8368;48.772;8.754;2023-09-18T07:17:13;18.00;99.90
16511;DHT22;8368;48.772;8.754;2023-09-18T07:19:39;18.10;99.90
16511;DHT22;8368;48.772;8.754;2023-09-18T07:22:04;18.10;99.90
16511;DHT22;8368;48.772;8.754;2023-09-18T07:24:30;18.20;99.90
16511;DHT22;8368;48.772;8.754;2023-09-18T07:26:55;18.20;99.90
16511;DHT22;8368;48.772;8.754;2023-09-18T07:29:23;18.20;99.90
16511;DHT22;8368;48.772;8.754;2023-09-18T07:31:51;18.20;99.90
16511;DHT22;8368;48.772;8.754;2023-09-18T07:34:17;18.20;99.90
16511;DHT22;8368;48.772;8.754;2023-09-18T07:36:43;18.20;99.90
16511;DHT22;8368;48.772;8.754;2023-09-18T07:39:10;18.10;99.90
16511;DHT22;8368;48.772;8.754;2023-09-18T07:41:37;18.10;99.90
16511;DHT22;8368;48.772;8.754;2023-09-18T07:44:03;18.10;99.90
16511;DHT22;8368;48.772;8.754;2023-09-18T07:46:28;18.20;99.90
16511;DHT22;8368;48.772;8.754;2023-09-18T07:48:54;18.20;99.90
16511;DHT22;8368;48.772;8.754;2023-09-18T07:51:20;18.30;99.90
16511;DHT22;8368;48.772;8.754;2023-09-18T07:53:46;18.40;99.90
16511;DHT22;8368;48.772;8.754;2023-09-18T07:56:11;18.50;99.90
16511;DHT22;8368;48.772;8.754;2023-09-18T07:58:37;18.50;99.90
16511;DHT22;8368;48.772;8.754;2023-09-18T08:01:04;18.50;99.90
16511;DHT22;8368;48.772;8.754;2023-09-18T08:03:31;18.40;99.90
16511;DHT22;8368;48.772;8.754;2023-09-18T08:05:56;18.30;99.90
16511;DHT22;8368;48.772;8.754;2023-09-18T08:08:22;18.30;99.90
16511;DHT22;8368;48.772;8.754;2023-09-18T08:10:49;18.30;99.90
16511;DHT22;8368;48.772;8.754;2023-09-18T08:13:15;18.20;99.90
16511;DHT22;8368;48.772;8.754;2023-09-18T08:15:41;18.20;99.90
16511;DHT22;8368;48.772;8.754;2023-09-18T08:18:07;18.10;99.90
16511;DHT22;8368;48.772;8.754;2023-09-18T08:20:32;18.10;99.90
16511;DHT22;8368;48.772;8.754;2023-09-18T08:22:58;18.10;99.90
16511;DHT22;8368;48.772;8.754;2023-09-18T08:25:26;18.00;99.90
16511;DHT22;8368;48.772;8.754;2023-09-18T08:27:52;17.90;99.90
16511;DHT22;8368;48.772;8.754;2023-09-18T08:30:18;17.80;99.90
16511;DHT22;8368;48.772;8.754;2023-09-18T08:32:46;17.80;99.90
16511;DHT22;8368;48.772;8.754;2023-09-18T08:35:12;17.70;99.90
16511;DHT22;8368;48.772;8.754;2023-09-18T08:37:40;17.70;99.90
16511;DHT22;8368;48.772;8.754;2023-09-18T08:40:12;17.60;99.90
16511;DHT22;8368;48.772;8.754;2023-09-18T08:42:45;17.50;99.90
16511;DHT22;8368;48.772;8.754;2023-09-18T08:45:18;17.50;99.90
16511;DHT22;8368;48.772;8.754;2023-09-18T08:47:45;17.50;99.90
16511;DHT22;8368;48.772;8.754;2023-09-18T08:50:11;17.40;99.90
16511;DHT22;8368;48.772;8.754;2023-09-18T08:52:36;17.40;99.90
16511;DHT22;8368;48.772;8.754;2023-09-18T08:55:03;17.30;99.90
16511;DHT22;8368;48.772;8.754;2023-09-18T08:57:30;17.40;99.90
16511;DHT22;8368;48.772;8.754;2023-09-18T08:59:56;17.20;99.90
16511;DHT22;8368;48.772;8.754;2023-09-18T09:02:22;17.20;99.90
16511;DHT22;8368;48.772;8.754;2023-09-18T09:04:48;17.20;99.90
16511;DHT22;8368;48.772;8.754;2023-09-18T09:07:13;17.20;99.90
16511;DHT22;8368;48.772;8.754;2023-09-18T09:09:40;17.10;99.90
16511;DHT22;8368;48.772;8.754;2023-09-18T09:12:07;17.00;99.90
16511;DHT22;8368;48.772;8.754;2023-09-18T09:14:33;17.00;99.90
16511;DHT22;8368;48.772;8.754;2023-09-18T09:16:59;17.00;99.90
16511;DHT22;8368;48.772;8.754;2023-09-18T09:19:32;17.00;99.90
16511;DHT22;8368;48.772;8.754;2023-09-18T09:21:59;17.00;99.90
16511;DHT22;8368;48.772;8.754;2023-09-18T09:24:41;17.00;99.90
16511;DHT22;8368;48.772;8.754;2023-09-18T09:27:07;17.00;99.90
16511;DHT22;8368;48.772;8.754;2023-09-18T09:29:34;17.00;99.90
16511;DHT22;8368;48.772;8.754;2023-09-18T09:32:17;17.10;99.90
16511;DHT22;8368;48.772;8.754;2023-09-18T09:34:44;17.10;99.90
16511;DHT22;8368;48.772;8.754;2023-09-18T09:37:10;17.10;99.90
16511;DHT22;8368;48.772;8.754;2023-09-18T09:39:47;17.10;99.90
16511;DHT22;8368;48.772;8.754;2023-09-18T09:42:18;17.20;99.90
16511;DHT22;8368;48.772;8.754;2023-09-18T09:45:00;17.30;99.90
16511;DHT22;8368;48.772;8.754;2023-09-18T09:47:27;17.40;99.90
16511;DHT22;8368;48.772;8.754;2023-09-18T09:49:52;17.40;99.90
16511;DHT22;8368;48.772;8.754;2023-09-18T09:52:19;17.50;99.90
16511;DHT22;8368;48.772;8.754;2023-09-18T09:54:48;17.50;99.90
16511;DHT22;8368;48.772;8.754;2023-09-18T09:57:14;17.50;99.90
16511;DHT22;8368;48.772;8.754;2023-09-18T09:59:39;17.50;99.90
16511;DHT22;8368;48.772;8.754;2023-09-18T10:02:10;17.50;99.90
16511;DHT22;8368;48.772;8.754;2023-09-18T10:04:39;17.50;99.90
16511;DHT22;8368;48.772;8.754;2023-09-18T10:07:07;17.40;99.90
16511;DHT22;8368;48.772;8.754;2023-09-18T10:09:35;17.40;99.90
16511;DHT22;8368;48.772;8.754;2023-09-18T10:12:01;17.40;99.90
16511;DHT22;8368;48.772;8.754;2023-09-18T10:14:32;17.40;99.90
16511;DHT22;8368;48.772;8.754;2023-09-18T10:17:11;17.40;99.90
16511;DHT22;8368;48.772;8.754;2023-09-18T10:19:45;17.40;99.90
16511;DHT22;8368;48.772;8.754;2023-09-18T10:22:21;17.40;99.90
16511;DHT22;8368;48.772;8.754;2023-09-18T10:24:54;17.40;99.90
16511;DHT22;8368;48.772;8.754;2023-09-18T10:27:25;17.40;99.90
16511;DHT22;8368;48.772;8.754;2023-09-18T10:29:52;17.40;99.90
16511;DHT22;8368;48.772;8.754;2023-09-18T10:32:20;17.40;99.90
16511;DHT22;8368;48.772;8.754;2023-09-18T10:34:47;17.40;99.90
16511;DHT22;8368;48.772;8.754;2023-09-18T10:37:14;17.40;99.90
16511;DHT22;8368;48.772;8.754;2023-09-18T10:39:41;17.50;99.90
16511;DHT22;8368;48.772;8.754;2023-09-18T10:42:08;17.50;99.90
16511;DHT22;8368;48.772;8.754;2023-09-18T10:44:35;17.50;99.90
16511;DHT22;8368;48.772;8.754;2023-09-18T10:47:03;17.40;99.90
16511;DHT22;8368;48.772;8.754;2023-09-18T10:49:31;17.40;99.90
16511;DHT22;8368;48.772;8.754;2023-09-18T10:51:57;17.50;99.90
16511;DHT22;8368;48.772;8.754;2023-09-18T10:54:25;17.40;99.90
16511;DHT22;8368;48.772;8.754;2023-09-18T10:56:51;17.40;99.90
16511;DHT22;8368;48.772;8.754;2023-09-18T10:59:17;17.50;99.90
16511;DHT22;8368;48.772;8.754;2023-09-18T11:01:44;17.40;99.90
16511;DHT22;8368;48.772;8.754;2023-09-18T11:04:10;17.50;99.90
16511;DHT22;8368;48.772;8.754;2023-09-18T11:09:24;17.60;99.90
16511;DHT22;8368;48.772;8.754;2023-09-18T11:14:23;17.70;99.90
16511;DHT22;8368;48.772;8.754;2023-09-18T11:16:49;17.70;99.90
16511;DHT22;8368;48.772;8.754;2023-09-18T11:19:18;17.70;99.90
16511;DHT22;8368;48.772;8.754;2023-09-18T11:21:45;17.80;99.90
16511;DHT22;8368;48.772;8.754;2023-09-18T11:24:20;17.80;99.90
16511;DHT22;8368;48.772;8.754;2023-09-18T11:26:48;17.80;99.90
16511;DHT22;8368;48.772;8.754;2023-09-18T11:29:21;17.80;99.90
16511;DHT22;8368;48.772;8.754;2023-09-18T11:31:49;17.90;99.90
16511;DHT22;8368;48.772;8.754;2023-09-18T11:34:21;17.90;99.90
16511;DHT22;8368;48.772;8.754;2023-09-18T11:36:48;17.90;99.90
16511;DHT22;8368;48.772;8.754;2023-09-18T11:39:36;17.90;99.90
16511;DHT22;8368;48.772;8.754;2023-09-18T11:42:13;17.90;99.90
16511;DHT22;8368;48.772;8.754;2023-09-18T11:44:40;17.90;99.90
16511;DHT22;8368;48.772;8.754;2023-09-18T11:47:16;18.00;99.90
16511;DHT22;8368;48.772;8.754;2023-09-18T11:52:17;18.00;99.90
16511;DHT22;8368;48.772;8.754;2023-09-18T11:54:43;17.90;99.90
16511;DHT22;8368;48.772;8.754;2023-09-18T11:57:11;17.90;99.90
16511;DHT22;8368;48.772;8.754;2023-09-18T11:59:39;18.00;99.90
16511;DHT22;8368;48.772;8.754;2023-09-18T12:02:06;17.90;99.90
16511;DHT22;8368;48.772;8.754;2023-09-18T12:04:33;18.00;99.90
16511;DHT22;8368;48.772;8.754;2023-09-18T12:06:59;18.10;99.90
16511;DHT22;8368;48.772;8.754;2023-09-18T12:09:30;18.30;99.90
16511;DHT22;8368;48.772;8.754;2023-09-18T12:11:56;18.40;99.90
16511;DHT22;8368;48.772;8.754;2023-09-18T12:14:23;18.60;99.90
16511;DHT22;8368;48.772;8.754;2023-09-18T12:16:49;18.60;99.90
16511;DHT22;8368;48.772;8.754;2023-09-18T12:19:19;18.70;99.90
16511;DHT22;8368;48.772;8.754;2023-09-18T12:21:48;18.70;99.90
16511;DHT22;8368;48.772;8.754;2023-09-18T12:24:15;18.70;99.90
16511;DHT22;8368;48.772;8.754;2023-09-18T12:26:45;18.70;99.90
16511;DHT22;8368;48.772;8.754;2023-09-18T12:29:11;18.80;99.90
16511;DHT22;8368;48.772;8.754;2023-09-18T12:31:37;18.90;99.90
16511;DHT22;8368;48.772;8.754;2023-09-18T12:34:03;19.00;99.90
16511;DHT22;8368;48.772;8.754;2023-09-18T12:36:29;19.20;99.90
16511;DHT22;8368;48.772;8.754;2023-09-18T12:38:56;19.40;99.90
16511;DHT22;8368;48.772;8.754;2023-09-18T12:41:24;19.60;99.90
16511;DHT22;8368;48.772;8.754;2023-09-18T12:43:50;19.70;99.90
16511;DHT22;8368;48.772;8.754;2023-09-18T12:46:16;19.50;99.90
16511;DHT22;8368;48.772;8.754;2023-09-18T12:48:43;19.60;99.90
16511;DHT22;8368;48.772;8.754;2023-09-18T12:51:12;19.60;99.90
16511;DHT22;8368;48.772;8.754;2023-09-18T12:53:39;19.60;99.90
16511;DHT22;8368;48.772;8.754;2023-09-18T12:56:10;19.70;99.90
16511;DHT22;8368;48.772;8.754;2023-09-18T12:58:38;19.80;99.90
16511;DHT22;8368;48.772;8.754;2023-09-18T13:01:05;19.80;99.90
16511;DHT22;8368;48.772;8.754;2023-09-18T13:03:34;19.80;99.90
16511;DHT22;8368;48.772;8.754;2023-09-18T13:06:17;19.70;99.90
16511;DHT22;8368;48.772;8.754;2023-09-18T13:08:44;19.60;99.90
16511;DHT22;8368;48.772;8.754;2023-09-18T13:11:10;19.60;99.90
16511;DHT22;8368;48.772;8.754;2023-09-18T13:13:42;19.50;99.90
16511;DHT22;8368;48.772;8.754;2023-09-18T13:16:08;19.50;99.90
16511;DHT22;8368;48.772;8.754;2023-09-18T13:18:37;19.50;99.90
16511;DHT22;8368;48.772;8.754;2023-09-18T13:21:14;19.60;99.90
16511;DHT22;8368;48.772;8.754;2023-09-18T13:23:40;19.60;99.90
16511;DHT22;8368;48.772;8.754;2023-09-18T13:26:06;19.70;99.90
16511;DHT22;8368;48.772;8.754;2023-09-18T13:28:35;19.70;99.90
16511;DHT22;8368;48.772;8.754;2023-09-18T13:31:02;20.00;99.90
16511;DHT22;8368;48.772;8.754;2023-09-18T13:33:30;20.10;99.90
16511;DHT22;8368;48.772;8.754;2023-09-18T13:35:58;20.10;99.90
16511;DHT22;8368;48.772;8.754;2023-09-18T13:38:24;20.20;99.90
16511;DHT22;8368;48.772;8.754;2023-09-18T13:40:52;20.10;99.90
16511;DHT22;8368;48.772;8.754;2023-09-18T13:43:18;20.00;99.90
16511;DHT22;8368;48.772;8.754;2023-09-18T13:45:46;20.00;99.90
16511;DHT22;8368;48.772;8.754;2023-09-18T13:48:12;20.00;99.90
16511;DHT22;8368;48.772;8.754;2023-09-18T13:50:38;20.10;99.90
16511;DHT22;8368;48.772;8.754;2023-09-18T13:53:04;20.00;99.90
16511;DHT22;8368;48.772;8.754;2023-09-18T13:55:31;20.00;99.90
16511;DHT22;8368;48.772;8.754;2023-09-18T13:57:57;19.90;99.90
16511;DHT22;8368;48.772;8.754;2023-09-18T14:00:22;19.90;99.90
16511;DHT22;8368;48.772;8.754;2023-09-18T14:02:48;20.00;99.90
16511;DHT22;8368;48.772;8.754;2023-09-18T14:05:14;20.00;99.90
16511;DHT22;8368;48.772;8.754;2023-09-18T14:07:40;20.20;99.90
16511;DHT22;8368;48.772;8.754;2023-09-18T14:10:07;20.00;99.90
16511;DHT22;8368;48.772;8.754;2023-09-18T14:12:33;20.00;99.90
16511;DHT22;8368;48.772;8.754;2023-09-18T14:14:59;20.20;99.90
16511;DHT22;8368;48.772;8.754;2023-09-18T14:17:25;20.20;99.90
16511;DHT22;8368;48.772;8.754;2023-09-18T14:19:51;20.30;99.90
16511;DHT22;8368;48.772;8.754;2023-09-18T14:22:18;20.20;99.90
16511;DHT22;8368;48.772;8.754;2023-09-18T14:24:44;20.40;99.90
16511;DHT22;8368;48.772;8.754;2023-09-18T14:27:10;20.40;99.90
16511;DHT22;8368;48.772;8.754;2023-09-18T14:29:37;20.60;99.90
16511;DHT22;8368;48.772;8.754;2023-09-18T14:32:03;20.70;99.90
16511;DHT22;8368;48.772;8.754;2023-09-18T14:34:29;20.80;99.90
16511;DHT22;8368;48.772;8.754;2023-09-18T14:36:56;20.90;99.90
16511;DHT22;8368;48.772;8.754;2023-09-18T14:39:22;20.80;99.90
16511;DHT22;8368;48.772;8.754;2023-09-18T14:41:47;20.70;99.90
16511;DHT22;8368;48.772;8.754;2023-09-18T14:44:13;20.60;99.90
16511;DHT22;8368;48.772;8.754;2023-09-18T14:46:39;20.50;99.90
16511;DHT22;8368;48.772;8.754;2023-09-18T14:49:06;20.50;99.90
16511;DHT22;8368;48.772;8.754;2023-09-18T14:51:33;20.40;99.90
16511;DHT22;8368;48.772;8.754;2023-09-18T14:53:59;20.50;99.90
16511;DHT22;8368;48.772;8.754;2023-09-18T14:56:25;20.50;99.90
16511;DHT22;8368;48.772;8.754;2023-09-18T14:58:50;20.50;99.90
16511;DHT22;8368;48.772;8.754;2023-09-18T15:01:17;20.60;99.90
16511;DHT22;8368;48.772;8.754;2023-09-18T15:03:43;20.60;99.90
16511;DHT22;8368;48.772;8.754;2023-09-18T15:06:12;20.60;99.90
16511;DHT22;8368;48.772;8.754;2023-09-18T15:08:38;20.60;99.90
16511;DHT22;8368;48.772;8.754;2023-09-18T15:11:03;20.50;99.90
16511;DHT22;8368;48.772;8.754;2023-09-18T15:13:30;20.50;99.90
16511;DHT22;8368;48.772;8.754;2023-09-18T15:15:56;20.50;99.90
16511;DHT22;8368;48.772;8.754;2023-09-18T15:18:22;20.30;99.90
16511;DHT22;8368;48.772;8.754;2023-09-18T15:20:48;20.20;99.90
16511;DHT22;8368;48.772;8.754;2023-09-18T15:23:20;20.00;99.90
16511;DHT22;8368;48.772;8.754;2023-09-18T15:25:47;19.90;99.90
16511;DHT22;8368;48.772;8.754;2023-09-18T15:28:16;19.70;99.90
16511;DHT22;8368;48.772;8.754;2023-09-18T15:30:45;19.70;99.90
16511;DHT22;8368;48.772;8.754;2023-09-18T15:33:11;19.60;99.90
16511;DHT22;8368;48.772;8.754;2023-09-18T15:35:37;19.50;99.90
16511;DHT22;8368;48.772;8.754;2023-09-18T15:38:03;19.50;99.90
16511;DHT22;8368;48.772;8.754;2023-09-18T15:40:28;19.50;99.90
16511;DHT22;8368;48.772;8.754;2023-09-18T15:42:54;19.50;99.90
16511;DHT22;8368;48.772;8.754;2023-09-18T15:45:19;19.40;99.90
16511;DHT22;8368;48.772;8.754;2023-09-18T15:47:45;19.30;99.90
16511;DHT22;8368;48.772;8.754;2023-09-18T15:50:11;19.20;99.90
16511;DHT22;8368;48.772;8.754;2023-09-18T15:52:37;19.20;99.90